sensor_id;sensor_type;location;lat;lon;timestamp;P1;durP1;ratioP1;P2;durP2;ratioP2
60700;SDS011;46541;49.894;10.886;2023-11-21T00:02:23;7.18;;;1.60;;
60700;SDS011;46541;49.894;10.886;2023-11-21T00:04:50;7.43;;;1.73;;
60700;SDS011;46541;49.894;10.886;2023-11-21T00:07:17;3.85;;;1.15;;
60700;SDS011;46541;49.894;10.886;2023-11-21T00:09:44;4.88;;;1.48;;
60700;SDS011;46541;49.894;10.886;2023-11-21T00:12:10;4.57;;;1.52;;
60700;SDS011;46541;49.894;10.886;2023-11-21T00:14:37;12.50;;;2.47;;
60700;SDS011;46541;49.894;10.886;2023-11-21T00:17:07;5.57;;;1.52;;
60700;SDS011;46541;49.894;10.886;2023-11-21T00:19:34;5.13;;;1.63;;
60700;SDS011;46541;49.894;10.886;2023-11-21T00:22:01;12.55;;;1.98;;
60700;SDS011;46541;49.894;10.886;2023-11-21T00:24:28;6.45;;;2.45;;
60700;SDS011;46541;49.894;10.886;2023-11-21T00:26:54;8.50;;;2.25;;
60700;SDS011;46541;49.894;10.886;2023-11-21T00:29:21;9.48;;;2.03;;
60700;SDS011;46541;49.894;10.886;2023-11-21T00:31:48;10.43;;;2.15;;
60700;SDS011;46541;49.894;10.886;2023-11-21T00:34:15;7.03;;;2.05;;
60700;SDS011;46541;49.894;10.886;2023-11-21T00:36:41;6.15;;;1.48;;
60700;SDS011;46541;49.894;10.886;2023-11-21T00:39:08;5.28;;;1.15;;
60700;SDS011;46541;49.894;10.886;2023-11-21T00:41:35;9.40;;;2.70;;
60700;SDS011;46541;49.894;10.886;2023-11-21T00:44:03;9.57;;;3.55;;
60700;SDS011;46541;49.894;10.886;2023-11-21T00:46:30;8.07;;;3.28;;
60700;SDS011;46541;49.894;10.886;2023-11-21T00:48:57;10.63;;;2.50;;
60700;SDS011;46541;49.894;10.886;2023-11-21T00:51:24;9.75;;;2.58;;
60700;SDS011;46541;49.894;10.886;2023-11-21T00:53:50;6.30;;;2.10;;
60700;SDS011;46541;49.894;10.886;2023-11-21T00:56:18;6.32;;;2.40;;
60700;SDS011;46541;49.894;10.886;2023-11-21T00:58:44;3.58;;;1.45;;
60700;SDS011;46541;49.894;10.886;2023-11-21T01:01:16;8.00;;;1.38;;
60700;SDS011;46541;49.894;10.886;2023-11-21T01:03:43;5.45;;;1.45;;
60700;SDS011;46541;49.894;10.886;2023-11-21T01:06:12;6.47;;;2.10;;
60700;SDS011;46541;49.894;10.886;2023-11-21T01:08:41;4.78;;;2.20;;
60700;SDS011;46541;49.894;10.886;2023-11-21T01:11:08;13.07;;;3.40;;
60700;SDS011;46541;49.894;10.886;2023-11-21T01:13:36;10.45;;;3.03;;
60700;SDS011;46541;49.894;10.886;2023-11-21T01:16:03;8.18;;;2.63;;
60700;SDS011;46541;49.894;10.886;2023-11-21T01:18:32;6.05;;;2.38;;
60700;SDS011;46541;49.894;10.886;2023-11-21T01:20:59;4.05;;;1.95;;
60700;SDS011;46541;49.894;10.886;2023-11-21T01:23:26;6.75;;;1.83;;
60700;SDS011;46541;49.894;10.886;2023-11-21T01:25:55;4.20;;;2.28;;
60700;SDS011;46541;49.894;10.886;2023-11-21T01:28:22;7.88;;;1.08;;
60700;SDS011;46541;49.894;10.886;2023-11-21T01:30:49;5.63;;;1.67;;
60700;SDS011;46541;49.894;10.886;2023-11-21T01:33:16;6.00;;;2.38;;
60700;SDS011;46541;49.894;10.886;2023-11-21T01:35:43;9.48;;;2.15;;
60700;SDS011;46541;49.894;10.886;2023-11-21T01:38:09;12.35;;;3.08;;
60700;SDS011;46541;49.894;10.886;2023-11-21T01:40:36;7.47;;;2.42;;
60700;SDS011;46541;49.894;10.886;2023-11-21T01:43:03;7.00;;;2.65;;
60700;SDS011;46541;49.894;10.886;2023-11-21T01:45:30;6.90;;;2.00;;
60700;SDS011;46541;49.894;10.886;2023-11-21T01:48:00;5.40;;;1.60;;
60700;SDS011;46541;49.894;10.886;2023-11-21T01:50:28;7.68;;;2.35;;
60700;SDS011;46541;49.894;10.886;2023-11-21T01:52:55;4.60;;;1.63;;
60700;SDS011;46541;49.894;10.886;2023-11-21T01:55:23;4.03;;;1.58;;
60700;SDS011;46541;49.894;10.886;2023-11-21T01:57:54;5.75;;;2.22;;
60700;SDS011;46541;49.894;10.886;2023-11-21T02:00:22;6.45;;;2.13;;
60700;SDS011;46541;49.894;10.886;2023-11-21T02:02:50;4.57;;;1.65;;
60700;SDS011;46541;49.894;10.886;2023-11-21T02:05:17;5.10;;;1.58;;
60700;SDS011;46541;49.894;10.886;2023-11-21T02:07:45;5.60;;;1.88;;
60700;SDS011;46541;49.894;10.886;2023-11-21T02:10:14;4.78;;;1.42;;
60700;SDS011;46541;49.894;10.886;2023-11-21T02:12:41;5.05;;;1.30;;
60700;SDS011;46541;49.894;10.886;2023-11-21T02:15:10;2.83;;;1.20;;
60700;SDS011;46541;49.894;10.886;2023-11-21T02:17:41;6.35;;;1.95;;
60700;SDS011;46541;49.894;10.886;2023-11-21T02:20:13;5.10;;;2.00;;
60700;SDS011;46541;49.894;10.886;2023-11-21T02:22:48;3.65;;;1.67;;
60700;SDS011;46541;49.894;10.886;2023-11-21T02:25:16;3.00;;;1.70;;
60700;SDS011;46541;49.894;10.886;2023-11-21T02:27:44;13.10;;;2.75;;
60700;SDS011;46541;49.894;10.886;2023-11-21T02:30:14;9.77;;;2.30;;
60700;SDS011;46541;49.894;10.886;2023-11-21T02:32:42;4.45;;;2.00;;
60700;SDS011;46541;49.894;10.886;2023-11-21T02:35:14;4.45;;;1.88;;
60700;SDS011;46541;49.894;10.886;2023-11-21T02:37:42;8.27;;;2.10;;
60700;SDS011;46541;49.894;10.886;2023-11-21T02:40:09;4.95;;;1.52;;
60700;SDS011;46541;49.894;10.886;2023-11-21T02:42:39;4.28;;;2.00;;
60700;SDS011;46541;49.894;10.886;2023-11-21T02:45:06;2.35;;;1.38;;
60700;SDS011;46541;49.894;10.886;2023-11-21T02:47:34;3.10;;;1.83;;
60700;SDS011;46541;49.894;10.886;2023-11-21T02:50:01;5.75;;;1.33;;
60700;SDS011;46541;49.894;10.886;2023-11-21T02:52:28;8.10;;;1.88;;
60700;SDS011;46541;49.894;10.886;2023-11-21T02:54:55;7.97;;;2.10;;
60700;SDS011;46541;49.894;10.886;2023-11-21T02:57:22;5.00;;;1.70;;
60700;SDS011;46541;49.894;10.886;2023-11-21T02:59:48;2.80;;;1.52;;
60700;SDS011;46541;49.894;10.886;2023-11-21T03:02:16;4.57;;;1.70;;
60700;SDS011;46541;49.894;10.886;2023-11-21T03:04:43;7.22;;;1.92;;
60700;SDS011;46541;49.894;10.886;2023-11-21T03:07:10;3.55;;;2.17;;
60700;SDS011;46541;49.894;10.886;2023-11-21T03:09:37;4.20;;;1.73;;
60700;SDS011;46541;49.894;10.886;2023-11-21T03:12:03;2.05;;;1.48;;
60700;SDS011;46541;49.894;10.886;2023-11-21T03:14:34;3.53;;;1.83;;
60700;SDS011;46541;49.894;10.886;2023-11-21T03:17:01;5.00;;;1.67;;
60700;SDS011;46541;49.894;10.886;2023-11-21T03:19:31;5.00;;;1.50;;
60700;SDS011;46541;49.894;10.886;2023-11-21T03:21:58;3.90;;;2.15;;
60700;SDS011;46541;49.894;10.886;2023-11-21T03:24:25;4.40;;;2.47;;
60700;SDS011;46541;49.894;10.886;2023-11-21T03:26:52;4.90;;;2.28;;
60700;SDS011;46541;49.894;10.886;2023-11-21T03:29:19;4.13;;;1.70;;
60700;SDS011;46541;49.894;10.886;2023-11-21T03:31:46;4.18;;;2.20;;
60700;SDS011;46541;49.894;10.886;2023-11-21T03:34:23;4.55;;;1.98;;
60700;SDS011;46541;49.894;10.886;2023-11-21T03:36:53;5.57;;;1.55;;
60700;SDS011;46541;49.894;10.886;2023-11-21T03:39:20;5.13;;;1.80;;
60700;SDS011;46541;49.894;10.886;2023-11-21T03:41:47;7.00;;;2.20;;
60700;SDS011;46541;49.894;10.886;2023-11-21T03:44:14;4.90;;;2.00;;
60700;SDS011;46541;49.894;10.886;2023-11-21T03:46:41;6.05;;;2.08;;
60700;SDS011;46541;49.894;10.886;2023-11-21T03:49:08;3.83;;;2.10;;
60700;SDS011;46541;49.894;10.886;2023-11-21T03:51:34;5.28;;;2.17;;
60700;SDS011;46541;49.894;10.886;2023-11-21T03:54:01;5.10;;;2.08;;
60700;SDS011;46541;49.894;10.886;2023-11-21T03:56:28;3.72;;;1.60;;
60700;SDS011;46541;49.894;10.886;2023-11-21T03:58:55;3.45;;;1.90;;
60700;SDS011;46541;49.894;10.886;2023-11-21T04:01:22;3.78;;;1.67;;
60700;SDS011;46541;49.894;10.886;2023-11-21T04:03:49;4.97;;;1.90;;
60700;SDS011;46541;49.894;10.886;2023-11-21T04:06:17;3.58;;;1.85;;
60700;SDS011;46541;49.894;10.886;2023-11-21T04:08:44;6.80;;;2.05;;
60700;SDS011;46541;49.894;10.886;2023-11-21T04:11:11;3.30;;;1.83;;
60700;SDS011;46541;49.894;10.886;2023-11-21T04:13:39;3.28;;;1.75;;
60700;SDS011;46541;49.894;10.886;2023-11-21T04:16:07;5.28;;;2.38;;
60700;SDS011;46541;49.894;10.886;2023-11-21T04:18:35;4.65;;;2.22;;
60700;SDS011;46541;49.894;10.886;2023-11-21T04:21:03;4.53;;;1.98;;
60700;SDS011;46541;49.894;10.886;2023-11-21T04:23:30;2.90;;;1.90;;
60700;SDS011;46541;49.894;10.886;2023-11-21T04:26:01;4.07;;;1.95;;
60700;SDS011;46541;49.894;10.886;2023-11-21T04:28:28;4.53;;;2.42;;
60700;SDS011;46541;49.894;10.886;2023-11-21T04:30:55;7.28;;;2.00;;
60700;SDS011;46541;49.894;10.886;2023-11-21T04:33:22;6.43;;;2.75;;
60700;SDS011;46541;49.894;10.886;2023-11-21T04:35:49;2.10;;;1.50;;
60700;SDS011;46541;49.894;10.886;2023-11-21T04:38:15;3.45;;;1.58;;
60700;SDS011;46541;49.894;10.886;2023-11-21T04:40:42;3.33;;;1.55;;
60700;SDS011;46541;49.894;10.886;2023-11-21T04:43:09;5.45;;;1.95;;
60700;SDS011;46541;49.894;10.886;2023-11-21T04:45:36;3.13;;;1.30;;
60700;SDS011;46541;49.894;10.886;2023-11-21T04:48:03;4.88;;;1.52;;
60700;SDS011;46541;49.894;10.886;2023-11-21T04:50:30;3.42;;;1.63;;
60700;SDS011;46541;49.894;10.886;2023-11-21T04:52:57;5.55;;;1.67;;
60700;SDS011;46541;49.894;10.886;2023-11-21T04:55:24;5.50;;;1.88;;
60700;SDS011;46541;49.894;10.886;2023-11-21T04:57:54;2.92;;;1.50;;
60700;SDS011;46541;49.894;10.886;2023-11-21T05:00:21;4.93;;;1.67;;
60700;SDS011;46541;49.894;10.886;2023-11-21T05:02:47;3.17;;;1.33;;
60700;SDS011;46541;49.894;10.886;2023-11-21T05:05:14;4.68;;;2.17;;
60700;SDS011;46541;49.894;10.886;2023-11-21T05:07:41;2.33;;;1.38;;
60700;SDS011;46541;49.894;10.886;2023-11-21T05:10:09;4.75;;;1.73;;
60700;SDS011;46541;49.894;10.886;2023-11-21T05:12:39;1.65;;;1.40;;
60700;SDS011;46541;49.894;10.886;2023-11-21T05:15:07;3.60;;;1.95;;
60700;SDS011;46541;49.894;10.886;2023-11-21T05:17:36;2.78;;;1.25;;
60700;SDS011;46541;49.894;10.886;2023-11-21T05:20:05;2.95;;;2.15;;
60700;SDS011;46541;49.894;10.886;2023-11-21T05:22:35;6.03;;;1.83;;
60700;SDS011;46541;49.894;10.886;2023-11-21T05:25:03;5.55;;;1.45;;
60700;SDS011;46541;49.894;10.886;2023-11-21T05:27:30;6.60;;;1.70;;
60700;SDS011;46541;49.894;10.886;2023-11-21T05:29:57;4.53;;;1.60;;
60700;SDS011;46541;49.894;10.886;2023-11-21T05:32:24;3.08;;;1.38;;
60700;SDS011;46541;49.894;10.886;2023-11-21T05:34:52;4.30;;;1.88;;
60700;SDS011;46541;49.894;10.886;2023-11-21T05:37:19;5.28;;;1.70;;
60700;SDS011;46541;49.894;10.886;2023-11-21T05:39:45;2.70;;;1.65;;
60700;SDS011;46541;49.894;10.886;2023-11-21T05:42:13;4.25;;;2.33;;
60700;SDS011;46541;49.894;10.886;2023-11-21T05:44:41;6.55;;;2.30;;
60700;SDS011;46541;49.894;10.886;2023-11-21T05:47:09;2.90;;;2.20;;
60700;SDS011;46541;49.894;10.886;2023-11-21T05:49:36;3.30;;;2.05;;
60700;SDS011;46541;49.894;10.886;2023-11-21T05:52:03;3.38;;;2.17;;
60700;SDS011;46541;49.894;10.886;2023-11-21T05:54:31;4.57;;;2.17;;
60700;SDS011;46541;49.894;10.886;2023-11-21T05:56:59;6.28;;;2.40;;
60700;SDS011;46541;49.894;10.886;2023-11-21T05:59:26;4.28;;;2.25;;
60700;SDS011;46541;49.894;10.886;2023-11-21T06:01:53;7.28;;;2.50;;
60700;SDS011;46541;49.894;10.886;2023-11-21T06:04:20;4.40;;;2.22;;
60700;SDS011;46541;49.894;10.886;2023-11-21T06:06:51;7.00;;;2.65;;
60700;SDS011;46541;49.894;10.886;2023-11-21T06:09:18;7.13;;;2.47;;
60700;SDS011;46541;49.894;10.886;2023-11-21T06:11:45;4.97;;;2.50;;
60700;SDS011;46541;49.894;10.886;2023-11-21T06:14:12;5.68;;;2.72;;
60700;SDS011;46541;49.894;10.886;2023-11-21T06:16:38;7.78;;;2.70;;
60700;SDS011;46541;49.894;10.886;2023-11-21T06:19:07;5.85;;;3.40;;
60700;SDS011;46541;49.894;10.886;2023-11-21T06:21:33;8.35;;;3.45;;
60700;SDS011;46541;49.894;10.886;2023-11-21T06:24:01;6.15;;;3.22;;
60700;SDS011;46541;49.894;10.886;2023-11-21T06:26:28;5.15;;;3.05;;
60700;SDS011;46541;49.894;10.886;2023-11-21T06:28:55;6.20;;;4.00;;
60700;SDS011;46541;49.894;10.886;2023-11-21T06:31:23;10.32;;;4.90;;
60700;SDS011;46541;49.894;10.886;2023-11-21T06:33:50;6.63;;;4.50;;
60700;SDS011;46541;49.894;10.886;2023-11-21T06:36:18;9.07;;;4.25;;
60700;SDS011;46541;49.894;10.886;2023-11-21T06:38:45;6.47;;;3.97;;
60700;SDS011;46541;49.894;10.886;2023-11-21T06:41:12;7.15;;;3.85;;
60700;SDS011;46541;49.894;10.886;2023-11-21T06:43:41;8.85;;;4.28;;
60700;SDS011;46541;49.894;10.886;2023-11-21T06:46:12;7.25;;;4.35;;
60700;SDS011;46541;49.894;10.886;2023-11-21T06:48:42;6.97;;;4.50;;
60700;SDS011;46541;49.894;10.886;2023-11-21T06:51:09;13.25;;;6.88;;
60700;SDS011;46541;49.894;10.886;2023-11-21T06:53:36;8.60;;;6.07;;
60700;SDS011;46541;49.894;10.886;2023-11-21T06:56:04;10.68;;;5.55;;
60700;SDS011;46541;49.894;10.886;2023-11-21T06:58:41;10.40;;;6.00;;
60700;SDS011;46541;49.894;10.886;2023-11-21T07:01:08;17.85;;;8.25;;
60700;SDS011;46541;49.894;10.886;2023-11-21T07:03:35;20.73;;;12.25;;
60700;SDS011;46541;49.894;10.886;2023-11-21T07:06:04;16.52;;;10.07;;
60700;SDS011;46541;49.894;10.886;2023-11-21T07:08:31;14.15;;;6.55;;
60700;SDS011;46541;49.894;10.886;2023-11-21T07:10:57;21.13;;;9.95;;
60700;SDS011;46541;49.894;10.886;2023-11-21T07:13:24;17.63;;;10.50;;
60700;SDS011;46541;49.894;10.886;2023-11-21T07:15:52;60.08;;;30.95;;
60700;SDS011;46541;49.894;10.886;2023-11-21T07:18:19;119.63;;;64.25;;
60700;SDS011;46541;49.894;10.886;2023-11-21T07:20:45;143.40;;;80.05;;
60700;SDS011;46541;49.894;10.886;2023-11-21T07:23:12;71.43;;;40.35;;
60700;SDS011;46541;49.894;10.886;2023-11-21T07:25:39;52.55;;;29.90;;
60700;SDS011;46541;49.894;10.886;2023-11-21T07:28:08;41.58;;;27.13;;
60700;SDS011;46541;49.894;10.886;2023-11-21T07:30:34;30.58;;;19.58;;
60700;SDS011;46541;49.894;10.886;2023-11-21T07:33:01;14.73;;;9.32;;
60700;SDS011;46541;49.894;10.886;2023-11-21T07:35:28;34.40;;;19.20;;
60700;SDS011;46541;49.894;10.886;2023-11-21T07:37:55;67.00;;;37.53;;
60700;SDS011;46541;49.894;10.886;2023-11-21T07:40:21;32.25;;;18.20;;
60700;SDS011;46541;49.894;10.886;2023-11-21T07:42:48;22.35;;;12.27;;
60700;SDS011;46541;49.894;10.886;2023-11-21T07:45:16;17.50;;;9.60;;
60700;SDS011;46541;49.894;10.886;2023-11-21T07:47:43;16.58;;;10.07;;
60700;SDS011;46541;49.894;10.886;2023-11-21T07:50:10;23.35;;;10.40;;
60700;SDS011;46541;49.894;10.886;2023-11-21T07:52:37;17.50;;;8.05;;
60700;SDS011;46541;49.894;10.886;2023-11-21T07:55:04;14.70;;;6.45;;
60700;SDS011;46541;49.894;10.886;2023-11-21T07:57:31;10.43;;;5.97;;
60700;SDS011;46541;49.894;10.886;2023-11-21T07:59:58;10.23;;;6.50;;
60700;SDS011;46541;49.894;10.886;2023-11-21T08:02:24;12.57;;;7.25;;
60700;SDS011;46541;49.894;10.886;2023-11-21T08:04:52;9.48;;;6.57;;
60700;SDS011;46541;49.894;10.886;2023-11-21T08:07:19;10.43;;;7.13;;
60700;SDS011;46541;49.894;10.886;2023-11-21T08:09:46;17.27;;;8.23;;
60700;SDS011;46541;49.894;10.886;2023-11-21T08:12:15;14.23;;;7.60;;
60700;SDS011;46541;49.894;10.886;2023-11-21T08:14:42;12.25;;;7.63;;
60700;SDS011;46541;49.894;10.886;2023-11-21T08:17:10;12.05;;;7.07;;
60700;SDS011;46541;49.894;10.886;2023-11-21T08:19:39;15.30;;;7.45;;
60700;SDS011;46541;49.894;10.886;2023-11-21T08:22:06;15.93;;;8.02;;
60700;SDS011;46541;49.894;10.886;2023-11-21T08:24:34;11.10;;;7.30;;
60700;SDS011;46541;49.894;10.886;2023-11-21T08:27:00;15.07;;;7.57;;
60700;SDS011;46541;49.894;10.886;2023-11-21T08:29:27;12.73;;;7.90;;
60700;SDS011;46541;49.894;10.886;2023-11-21T08:31:54;15.15;;;8.02;;
60700;SDS011;46541;49.894;10.886;2023-11-21T08:34:21;15.02;;;9.35;;
60700;SDS011;46541;49.894;10.886;2023-11-21T08:36:47;12.85;;;8.85;;
60700;SDS011;46541;49.894;10.886;2023-11-21T08:39:14;22.98;;;9.15;;
60700;SDS011;46541;49.894;10.886;2023-11-21T08:41:42;19.38;;;9.65;;
60700;SDS011;46541;49.894;10.886;2023-11-21T08:44:09;20.33;;;11.63;;
60700;SDS011;46541;49.894;10.886;2023-11-21T08:46:37;22.05;;;11.68;;
60700;SDS011;46541;49.894;10.886;2023-11-21T08:49:05;32.05;;;20.67;;
60700;SDS011;46541;49.894;10.886;2023-11-21T08:51:32;27.67;;;15.23;;
60700;SDS011;46541;49.894;10.886;2023-11-21T08:53:59;19.23;;;9.73;;
60700;SDS011;46541;49.894;10.886;2023-11-21T08:56:28;22.55;;;12.05;;
60700;SDS011;46541;49.894;10.886;2023-11-21T08:58:55;13.20;;;7.20;;
60700;SDS011;46541;49.894;10.886;2023-11-21T09:01:22;142.68;;;64.63;;
60700;SDS011;46541;49.894;10.886;2023-11-21T09:03:49;29.20;;;15.90;;
60700;SDS011;46541;49.894;10.886;2023-11-21T09:06:16;17.40;;;9.23;;
60700;SDS011;46541;49.894;10.886;2023-11-21T09:08:43;30.20;;;20.30;;
60700;SDS011;46541;49.894;10.886;2023-11-21T09:11:10;26.40;;;14.95;;
60700;SDS011;46541;49.894;10.886;2023-11-21T09:13:37;39.72;;;21.10;;
60700;SDS011;46541;49.894;10.886;2023-11-21T09:16:04;21.63;;;11.23;;
60700;SDS011;46541;49.894;10.886;2023-11-21T09:18:32;14.00;;;6.82;;
60700;SDS011;46541;49.894;10.886;2023-11-21T09:20:59;16.10;;;8.40;;
60700;SDS011;46541;49.894;10.886;2023-11-21T09:23:25;19.88;;;7.97;;
60700;SDS011;46541;49.894;10.886;2023-11-21T09:25:52;41.72;;;26.98;;
60700;SDS011;46541;49.894;10.886;2023-11-21T09:28:23;22.20;;;11.95;;
60700;SDS011;46541;49.894;10.886;2023-11-21T09:30:49;20.20;;;11.60;;
60700;SDS011;46541;49.894;10.886;2023-11-21T09:33:16;16.13;;;9.57;;
60700;SDS011;46541;49.894;10.886;2023-11-21T09:35:43;19.38;;;10.30;;
60700;SDS011;46541;49.894;10.886;2023-11-21T09:38:10;17.35;;;11.68;;
60700;SDS011;46541;49.894;10.886;2023-11-21T09:40:37;10.30;;;6.20;;
60700;SDS011;46541;49.894;10.886;2023-11-21T09:43:17;11.15;;;6.60;;
60700;SDS011;46541;49.894;10.886;2023-11-21T09:45:48;16.08;;;9.57;;
60700;SDS011;46541;49.894;10.886;2023-11-21T09:48:20;12.95;;;7.88;;
60700;SDS011;46541;49.894;10.886;2023-11-21T09:50:48;12.57;;;6.30;;
60700;SDS011;46541;49.894;10.886;2023-11-21T09:53:19;13.07;;;5.47;;
60700;SDS011;46541;49.894;10.886;2023-11-21T09:55:48;13.60;;;6.70;;
60700;SDS011;46541;49.894;10.886;2023-11-21T09:58:19;15.50;;;11.68;;
60700;SDS011;46541;49.894;10.886;2023-11-21T10:00:48;12.27;;;6.90;;
60700;SDS011;46541;49.894;10.886;2023-11-21T10:03:18;27.10;;;17.58;;
60700;SDS011;46541;49.894;10.886;2023-11-21T10:05:45;13.40;;;7.25;;
60700;SDS011;46541;49.894;10.886;2023-11-21T10:08:17;9.88;;;6.40;;
60700;SDS011;46541;49.894;10.886;2023-11-21T10:10:46;12.32;;;4.80;;
60700;SDS011;46541;49.894;10.886;2023-11-21T10:13:18;11.20;;;5.60;;
60700;SDS011;46541;49.894;10.886;2023-11-21T10:15:49;7.55;;;4.95;;
60700;SDS011;46541;49.894;10.886;2023-11-21T10:18:17;12.90;;;6.22;;
60700;SDS011;46541;49.894;10.886;2023-11-21T10:20:44;8.90;;;4.47;;
60700;SDS011;46541;49.894;10.886;2023-11-21T10:23:21;11.18;;;4.15;;
60700;SDS011;46541;49.894;10.886;2023-11-21T10:25:50;11.57;;;5.28;;
60700;SDS011;46541;49.894;10.886;2023-11-21T10:28:19;6.97;;;4.68;;
60700;SDS011;46541;49.894;10.886;2023-11-21T10:30:47;7.40;;;4.60;;
60700;SDS011;46541;49.894;10.886;2023-11-21T10:33:14;10.50;;;5.00;;
60700;SDS011;46541;49.894;10.886;2023-11-21T10:38:07;11.73;;;4.22;;
60700;SDS011;46541;49.894;10.886;2023-11-21T10:40:40;6.28;;;3.80;;
60700;SDS011;46541;49.894;10.886;2023-11-21T10:43:08;10.20;;;3.90;;
60700;SDS011;46541;49.894;10.886;2023-11-21T10:45:37;7.68;;;4.13;;
60700;SDS011;46541;49.894;10.886;2023-11-21T10:48:07;8.88;;;5.00;;
60700;SDS011;46541;49.894;10.886;2023-11-21T10:50:45;10.43;;;4.63;;
60700;SDS011;46541;49.894;10.886;2023-11-21T10:53:13;11.73;;;4.85;;
60700;SDS011;46541;49.894;10.886;2023-11-21T10:55:40;8.63;;;4.75;;
60700;SDS011;46541;49.894;10.886;2023-11-21T10:58:13;12.15;;;6.78;;
60700;SDS011;46541;49.894;10.886;2023-11-21T11:00:40;14.23;;;7.25;;
60700;SDS011;46541;49.894;10.886;2023-11-21T11:03:07;14.02;;;9.15;;
60700;SDS011;46541;49.894;10.886;2023-11-21T11:05:43;9.43;;;5.28;;
60700;SDS011;46541;49.894;10.886;2023-11-21T11:08:28;11.27;;;5.32;;
60700;SDS011;46541;49.894;10.886;2023-11-21T11:10:56;9.30;;;6.35;;
60700;SDS011;46541;49.894;10.886;2023-11-21T11:13:24;7.57;;;5.22;;
60700;SDS011;46541;49.894;10.886;2023-11-21T11:15:54;8.60;;;4.50;;
60700;SDS011;46541;49.894;10.886;2023-11-21T11:18:28;16.35;;;5.80;;
60700;SDS011;46541;49.894;10.886;2023-11-21T11:21:14;9.55;;;4.35;;
60700;SDS011;46541;49.894;10.886;2023-11-21T11:26:44;5.55;;;2.60;;
60700;SDS011;46541;49.894;10.886;2023-11-21T11:29:41;6.82;;;3.90;;
60700;SDS011;46541;49.894;10.886;2023-11-21T11:35:26;9.85;;;6.10;;
60700;SDS011;46541;49.894;10.886;2023-11-21T11:38:08;11.80;;;4.60;;
60700;SDS011;46541;49.894;10.886;2023-11-21T11:40:40;6.85;;;3.47;;
60700;SDS011;46541;49.894;10.886;2023-11-21T11:43:08;7.40;;;3.35;;
60700;SDS011;46541;49.894;10.886;2023-11-21T11:45:35;6.72;;;3.50;;
60700;SDS011;46541;49.894;10.886;2023-11-21T11:48:04;8.10;;;3.45;;
60700;SDS011;46541;49.894;10.886;2023-11-21T11:50:32;9.18;;;4.07;;
60700;SDS011;46541;49.894;10.886;2023-11-21T11:53:12;10.02;;;4.28;;
60700;SDS011;46541;49.894;10.886;2023-11-21T11:55:40;8.13;;;4.57;;
60700;SDS011;46541;49.894;10.886;2023-11-21T11:58:07;12.38;;;4.88;;
60700;SDS011;46541;49.894;10.886;2023-11-21T12:00:34;10.57;;;5.07;;
60700;SDS011;46541;49.894;10.886;2023-11-21T12:03:06;6.20;;;3.30;;
60700;SDS011;46541;49.894;10.886;2023-11-21T12:05:35;7.55;;;4.57;;
60700;SDS011;46541;49.894;10.886;2023-11-21T12:08:05;6.63;;;4.32;;
60700;SDS011;46541;49.894;10.886;2023-11-21T12:10:34;12.10;;;5.32;;
60700;SDS011;46541;49.894;10.886;2023-11-21T12:13:04;6.25;;;3.80;;
60700;SDS011;46541;49.894;10.886;2023-11-21T12:15:33;6.82;;;3.60;;
60700;SDS011;46541;49.894;10.886;2023-11-21T12:18:01;11.77;;;5.80;;
60700;SDS011;46541;49.894;10.886;2023-11-21T12:20:30;11.48;;;5.78;;
60700;SDS011;46541;49.894;10.886;2023-11-21T12:22:58;8.63;;;3.55;;
60700;SDS011;46541;49.894;10.886;2023-11-21T12:25:27;11.55;;;4.32;;
60700;SDS011;46541;49.894;10.886;2023-11-21T12:27:56;13.20;;;5.30;;
60700;SDS011;46541;49.894;10.886;2023-11-21T12:30:24;12.32;;;4.50;;
60700;SDS011;46541;49.894;10.886;2023-11-21T12:32:57;10.18;;;3.53;;
60700;SDS011;46541;49.894;10.886;2023-11-21T12:35:26;18.25;;;5.95;;
60700;SDS011;46541;49.894;10.886;2023-11-21T12:37:54;8.27;;;3.83;;
60700;SDS011;46541;49.894;10.886;2023-11-21T12:40:23;14.68;;;4.43;;
60700;SDS011;46541;49.894;10.886;2023-11-21T12:42:54;8.85;;;3.88;;
60700;SDS011;46541;49.894;10.886;2023-11-21T12:45:24;10.48;;;2.95;;
60700;SDS011;46541;49.894;10.886;2023-11-21T12:50:27;10.00;;;4.13;;
60700;SDS011;46541;49.894;10.886;2023-11-21T12:52:59;7.90;;;3.42;;
60700;SDS011;46541;49.894;10.886;2023-11-21T12:55:32;6.47;;;2.55;;
60700;SDS011;46541;49.894;10.886;2023-11-21T12:58:00;10.38;;;2.53;;
60700;SDS011;46541;49.894;10.886;2023-11-21T13:00:56;8.83;;;2.23;;
60700;SDS011;46541;49.894;10.886;2023-11-21T13:03:24;13.27;;;2.53;;
60700;SDS011;46541;49.894;10.886;2023-11-21T13:05:52;8.98;;;2.95;;
60700;SDS011;46541;49.894;10.886;2023-11-21T13:08:21;6.82;;;2.40;;
60700;SDS011;46541;49.894;10.886;2023-11-21T13:10:55;8.07;;;2.53;;
60700;SDS011;46541;49.894;10.886;2023-11-21T13:13:24;10.52;;;2.53;;
60700;SDS011;46541;49.894;10.886;2023-11-21T13:15:54;8.32;;;2.35;;
60700;SDS011;46541;49.894;10.886;2023-11-21T13:18:23;7.30;;;3.35;;
60700;SDS011;46541;49.894;10.886;2023-11-21T13:20:50;5.60;;;3.20;;
60700;SDS011;46541;49.894;10.886;2023-11-21T13:23:19;7.88;;;2.58;;
60700;SDS011;46541;49.894;10.886;2023-11-21T13:25:46;5.78;;;2.70;;
60700;SDS011;46541;49.894;10.886;2023-11-21T13:28:27;8.38;;;2.80;;
60700;SDS011;46541;49.894;10.886;2023-11-21T13:30:58;8.60;;;3.55;;
60700;SDS011;46541;49.894;10.886;2023-11-21T13:33:29;11.38;;;4.30;;
60700;SDS011;46541;49.894;10.886;2023-11-21T13:35:56;13.23;;;4.53;;
60700;SDS011;46541;49.894;10.886;2023-11-21T13:38:23;11.55;;;4.55;;
60700;SDS011;46541;49.894;10.886;2023-11-21T13:40:51;17.05;;;10.82;;
60700;SDS011;46541;49.894;10.886;2023-11-21T13:43:22;11.05;;;5.57;;
60700;SDS011;46541;49.894;10.886;2023-11-21T13:45:53;8.68;;;3.00;;
60700;SDS011;46541;49.894;10.886;2023-11-21T13:48:39;14.02;;;4.90;;
60700;SDS011;46541;49.894;10.886;2023-11-21T13:51:13;17.17;;;5.72;;
60700;SDS011;46541;49.894;10.886;2023-11-21T13:53:44;10.32;;;3.33;;
60700;SDS011;46541;49.894;10.886;2023-11-21T13:56:17;15.20;;;8.43;;
60700;SDS011;46541;49.894;10.886;2023-11-21T13:58:51;8.48;;;3.95;;
60700;SDS011;46541;49.894;10.886;2023-11-21T14:01:19;11.30;;;3.72;;
60700;SDS011;46541;49.894;10.886;2023-11-21T14:03:59;66.75;;;40.72;;
60700;SDS011;46541;49.894;10.886;2023-11-21T14:06:46;13.65;;;5.97;;
60700;SDS011;46541;49.894;10.886;2023-11-21T14:09:16;12.32;;;4.03;;
60700;SDS011;46541;49.894;10.886;2023-11-21T14:11:52;23.67;;;7.35;;
60700;SDS011;46541;49.894;10.886;2023-11-21T14:14:22;94.75;;;44.75;;
60700;SDS011;46541;49.894;10.886;2023-11-21T14:16:51;49.88;;;23.80;;
60700;SDS011;46541;49.894;10.886;2023-11-21T14:19:19;29.52;;;12.88;;
60700;SDS011;46541;49.894;10.886;2023-11-21T14:21:46;20.55;;;9.57;;
60700;SDS011;46541;49.894;10.886;2023-11-21T14:24:15;22.90;;;7.50;;
60700;SDS011;46541;49.894;10.886;2023-11-21T14:26:44;35.97;;;16.90;;
60700;SDS011;46541;49.894;10.886;2023-11-21T14:29:13;13.43;;;6.22;;
60700;SDS011;46541;49.894;10.886;2023-11-21T14:31:43;60.30;;;28.23;;
60700;SDS011;46541;49.894;10.886;2023-11-21T14:34:10;62.60;;;34.25;;
60700;SDS011;46541;49.894;10.886;2023-11-21T14:36:38;25.30;;;12.23;;
60700;SDS011;46541;49.894;10.886;2023-11-21T14:39:05;25.92;;;9.75;;
60700;SDS011;46541;49.894;10.886;2023-11-21T14:41:35;92.50;;;55.55;;
60700;SDS011;46541;49.894;10.886;2023-11-21T14:44:04;21.90;;;9.85;;
60700;SDS011;46541;49.894;10.886;2023-11-21T14:46:33;12.85;;;6.05;;
60700;SDS011;46541;49.894;10.886;2023-11-21T14:49:03;8.13;;;4.50;;